Time;durP1;ratioP1;P1;durP2;ratioP2;P2;SDS_P1;SDS_P2;PMS_P1;PMS_P2;Temp;Humidity;BMP_temperature;BMP_pressure;BME280_temperature;BME280_humidity;BME280_pressure;Samples;Min_cycle;Max_cycle;Signal;HPM_P1;HPM_P2
2022/09/26 00:01:59;;;;;;;;;;;16.60;60.70;;;;;;5087387;28;20277;-66
2022/09/26 00:04:26;;;;;;;;;;;16.60;60.70;;;;;;5087378;28;19969;-66
2022/09/26 00:06:52;;;;;;;;;;;16.60;60.70;;;;;;5087274;28;19920;-66
2022/09/26 00:09:18;;;;;;;;;;;16.60;60.70;;;;;;5079572;28;20277;-66
2022/09/26 00:11:44;;;;;;;;;;;16.60;60.70;;;;;;5073924;28;20022;-66
2022/09/26 00:14:13;;;;;;;;;;;16.60;60.70;;;;;;5074910;28;19972;-66
2022/09/26 00:16:38;;;;;;;;;;;16.60;60.60;;;;;;5073578;28;20360;-66
2022/09/26 00:19:04;;;;;;;;;;;16.80;60.50;;;;;;5073940;28;19921;-66
2022/09/26 00:21:30;;;;;;;;;;;17.20;59.90;;;;;;5074960;28;19927;-66
2022/09/26 00:23:56;;;;;;;;;;;17.60;59.90;;;;;;5073526;28;19921;-66
2022/09/26 00:26:23;;;;;;;;;;;18.00;58.20;;;;;;5073478;28;19920;-66
2022/09/26 00:28:49;;;;;;;;;;;18.40;57.30;;;;;;5073712;28;20007;-66
2022/09/26 00:31:17;;;;;;;;;;;18.80;56.40;;;;;;5073354;28;19956;-66
2022/09/26 00:33:42;;;;;;;;;;;19.00;55.80;;;;;;5074793;28;19966;-66
2022/09/26 00:36:08;;;;;;;;;;;19.10;55.40;;;;;;5073704;28;19952;-66
2022/09/26 00:38:33;;;;;;;;;;;19.10;55.20;;;;;;5073118;28;19931;-66
2022/09/26 00:40:59;;;;;;;;;;;19.10;55.10;;;;;;5073337;28;19927;-66
2022/09/26 00:43:41;;;;;;;;;;;19.00;55.00;;;;;;5074428;28;19920;-65
2022/09/26 00:46:26;;;;;;;;;;;18.90;55.30;;;;;;5074464;28;19947;-66
2022/09/26 00:48:58;;;;;;;;;;;18.70;55.40;;;;;;5073299;28;19924;-66
2022/09/26 00:51:23;;;;;;;;;;;18.60;55.80;;;;;;5073033;28;19920;-66
2022/09/26 00:53:49;;;;;;;;;;;18.40;56.00;;;;;;5072964;28;19925;-66
2022/09/26 00:56:17;;;;;;;;;;;18.20;56.40;;;;;;5074110;28;19920;-65
2022/09/26 00:58:46;;;;;;;;;;;18.10;56.70;;;;;;5093915;28;19972;-66
2022/09/26 01:01:12;;;;;;;;;;;18.00;57.10;;;;;;5076480;28;19920;-66
2022/09/26 01:03:39;;;;;;;;;;;17.90;57.30;;;;;;5094199;28;19920;-66
2022/09/26 01:06:05;;;;;;;;;;;17.80;57.60;;;;;;5093002;28;19958;-66
2022/09/26 01:08:33;;;;;;;;;;;17.70;57.80;;;;;;5093199;28;19994;-66
2022/09/26 01:11:00;;;;;;;;;;;17.60;57.90;;;;;;5093214;28;19931;-66
2022/09/26 01:13:25;;;;;;;;;;;17.60;58.20;;;;;;5094101;28;19924;-66
2022/09/26 01:15:51;;;;;;;;;;;17.50;58.30;;;;;;5093983;28;20410;-66
2022/09/26 01:18:17;;;;;;;;;;;17.40;58.30;;;;;;5093963;28;19924;-66
2022/09/26 01:20:50;;;;;;;;;;;17.40;58.50;;;;;;5074756;28;19973;-66
2022/09/26 01:29:04;;;;;;;;;;;17.20;58.70;;;;;;5089961;28;20380;-66
2022/09/26 01:32:47;;;;;;;;;;;17.20;58.80;;;;;;5088692;28;19970;-66
2022/09/26 01:34:55;;;;;;;;;;;17.20;59.00;;;;;;5088489;28;19920;-65
2022/09/26 01:37:28;;;;;;;;;;;17.10;59.00;;;;;;5105259;28;20007;-65
2022/09/26 01:40:01;;;;;;;;;;;17.10;59.10;;;;;;5088704;28;19920;-66
2022/09/26 01:45:16;;;;;;;;;;;17.00;59.20;;;;;;5110209;27;19912;-66
2022/09/26 01:47:45;;;;;;;;;;;17.00;59.20;;;;;;5092279;28;19924;-66
2022/09/26 01:53:09;;;;;;;;;;;16.90;59.30;;;;;;5089895;28;19913;-65
2022/09/26 01:55:36;;;;;;;;;;;16.90;59.40;;;;;;5088537;28;19927;-66
2022/09/26 01:58:12;;;;;;;;;;;16.90;59.40;;;;;;5089889;28;19927;-66
2022/09/26 02:00:40;;;;;;;;;;;16.90;59.50;;;;;;5088701;28;19925;-65
2022/09/26 02:03:09;;;;;;;;;;;16.90;59.60;;;;;;5088775;28;20010;-66
2022/09/26 02:05:38;;;;;;;;;;;16.80;59.60;;;;;;5089554;28;20037;-65
2022/09/26 02:10:54;;;;;;;;;;;16.80;59.60;;;;;;5089831;28;20368;-66
2022/09/26 02:13:22;;;;;;;;;;;16.80;59.70;;;;;;5088592;28;19943;-66
2022/09/26 02:15:51;;;;;;;;;;;16.80;59.70;;;;;;5089775;28;19939;-65
2022/09/26 02:18:21;;;;;;;;;;;16.80;59.80;;;;;;5088810;28;20368;-65
2022/09/26 02:20:50;;;;;;;;;;;16.80;59.80;;;;;;5088680;28;19920;-66
2022/09/26 02:23:16;;;;;;;;;;;16.80;59.80;;;;;;5088366;28;19931;-66
2022/09/26 02:25:41;;;;;;;;;;;16.80;59.80;;;;;;5089701;28;19920;-66
2022/09/26 02:28:07;;;;;;;;;;;16.80;59.80;;;;;;5088619;28;20355;-66
2022/09/26 02:30:33;;;;;;;;;;;16.80;59.80;;;;;;5089503;28;20292;-66
2022/09/26 02:32:58;;;;;;;;;;;16.80;59.80;;;;;;5088467;28;19920;-65
2022/09/26 02:35:55;;;;;;;;;;;16.90;59.80;;;;;;5089532;28;19927;-66
2022/09/26 02:38:09;;;;;;;;;;;16.80;59.80;;;;;;5089268;28;19970;-66
2022/09/26 02:40:41;;;;;;;;;;;16.90;59.90;;;;;;5088600;28;20344;-66
2022/09/26 02:43:25;;;;;;;;;;;16.90;59.90;;;;;;5088025;28;19925;-66
2022/09/26 02:46:01;;;;;;;;;;;16.80;59.80;;;;;;5088006;28;19920;-65
2022/09/26 02:51:29;;;;;;;;;;;16.80;59.80;;;;;;5090021;28;19945;-66
2022/09/26 02:54:02;;;;;;;;;;;16.80;59.80;;;;;;5088206;28;19952;-66
2022/09/26 02:59:20;;;;;;;;;;;16.80;59.80;;;;;;5090176;28;19912;-65
2022/09/26 03:01:49;;;;;;;;;;;16.80;59.80;;;;;;5088619;28;19920;-66
2022/09/26 03:06:57;;;;;;;;;;;16.80;60.00;;;;;;5089900;28;19912;-66
2022/09/26 03:09:24;;;;;;;;;;;16.70;59.90;;;;;;5088594;28;19920;-65
2022/09/26 03:11:51;;;;;;;;;;;16.70;59.90;;;;;;5088916;28;20196;-66
2022/09/26 03:14:19;;;;;;;;;;;16.70;59.90;;;;;;5088728;28;20395;-66
2022/09/26 03:16:46;;;;;;;;;;;16.80;60.00;;;;;;5088071;28;19965;-66
2022/09/26 03:19:17;;;;;;;;;;;16.70;60.00;;;;;;5089597;28;19997;-66
2022/09/26 03:21:44;;;;;;;;;;;16.70;60.00;;;;;;5088674;28;19927;-66
2022/09/26 03:24:10;;;;;;;;;;;16.70;60.00;;;;;;5089504;28;19921;-66
2022/09/26 03:26:36;;;;;;;;;;;16.70;60.00;;;;;;5088201;28;20376;-66
2022/09/26 03:29:02;;;;;;;;;;;16.70;60.00;;;;;;5089514;28;19920;-66
2022/09/26 03:31:28;;;;;;;;;;;16.70;60.00;;;;;;5089407;28;19943;-66
2022/09/26 03:33:53;;;;;;;;;;;16.70;60.00;;;;;;5089288;28;19924;-66
2022/09/26 03:36:21;;;;;;;;;;;16.70;60.00;;;;;;5089371;28;19927;-66
2022/09/26 03:38:46;;;;;;;;;;;16.70;60.10;;;;;;5089174;28;19927;-66
2022/09/26 03:41:12;;;;;;;;;;;16.70;60.10;;;;;;5089544;28;20368;-66
2022/09/26 03:43:38;;;;;;;;;;;16.70;60.10;;;;;;5089182;28;20292;-66
2022/09/26 03:46:04;;;;;;;;;;;16.70;60.10;;;;;;5089147;28;19935;-66
2022/09/26 03:48:30;;;;;;;;;;;16.70;60.10;;;;;;5088946;28;19921;-66
2022/09/26 03:51:04;;;;;;;;;;;16.70;60.10;;;;;;5088080;28;20011;-66
2022/09/26 03:53:31;;;;;;;;;;;16.80;60.20;;;;;;5088003;28;20007;-66
2022/09/26 03:56:05;;;;;;;;;;;16.70;60.20;;;;;;5087662;28;19925;-67
2022/09/26 03:58:31;;;;;;;;;;;16.70;60.10;;;;;;5087926;28;20283;-66
2022/09/26 04:01:01;;;;;;;;;;;16.70;60.20;;;;;;5087736;28;19924;-66
2022/09/26 04:03:27;;;;;;;;;;;16.70;60.20;;;;;;5088098;28;20065;-66
2022/09/26 04:05:52;;;;;;;;;;;16.70;60.20;;;;;;5100380;28;19974;-66
2022/09/26 04:08:18;;;;;;;;;;;16.60;60.20;;;;;;5109147;28;20014;-66
2022/09/26 04:10:43;;;;;;;;;;;16.70;60.30;;;;;;5090991;28;19997;-66
2022/09/26 04:13:08;;;;;;;;;;;16.70;60.30;;;;;;5090782;28;19963;-66
2022/09/26 04:15:34;;;;;;;;;;;16.70;60.40;;;;;;5108789;28;20440;-66
2022/09/26 04:17:59;;;;;;;;;;;16.60;60.40;;;;;;5096929;28;19927;-66
2022/09/26 04:20:25;;;;;;;;;;;16.60;60.40;;;;;;5094006;28;20130;-66
2022/09/26 04:22:51;;;;;;;;;;;16.70;60.40;;;;;;5095497;28;19959;-66
2022/09/26 04:25:19;;;;;;;;;;;16.60;60.40;;;;;;5093969;28;19938;-66
2022/09/26 04:27:45;;;;;;;;;;;16.60;60.40;;;;;;5095102;28;19978;-66
2022/09/26 04:30:11;;;;;;;;;;;16.70;60.40;;;;;;5094972;28;19967;-66
2022/09/26 04:32:36;;;;;;;;;;;16.60;60.40;;;;;;5076794;28;20362;-66
2022/09/26 04:35:02;;;;;;;;;;;16.70;60.40;;;;;;5060534;28;19927;-66
2022/09/26 04:37:28;;;;;;;;;;;16.60;60.40;;;;;;5077070;28;19927;-66
2022/09/26 04:39:54;;;;;;;;;;;16.60;60.40;;;;;;5076808;28;20612;-66
2022/09/26 04:42:20;;;;;;;;;;;16.70;60.40;;;;;;5076969;28;20279;-66
2022/09/26 04:44:47;;;;;;;;;;;16.60;60.40;;;;;;5076846;28;19996;-66
2022/09/26 04:47:12;;;;;;;;;;;16.60;60.40;;;;;;5076561;28;19973;-68
2022/09/26 04:49:38;;;;;;;;;;;16.70;60.40;;;;;;5076842;28;19924;-67
2022/09/26 04:52:03;;;;;;;;;;;16.70;60.50;;;;;;5076871;28;20598;-66
2022/09/26 04:54:29;;;;;;;;;;;16.60;60.40;;;;;;5076771;28;20326;-66
2022/09/26 04:56:54;;;;;;;;;;;16.60;60.40;;;;;;5094509;28;19973;-66
2022/09/26 04:59:20;;;;;;;;;;;16.60;60.40;;;;;;5076755;28;19920;-66
2022/09/26 05:01:46;;;;;;;;;;;16.60;60.40;;;;;;5094556;28;20292;-66
2022/09/26 05:04:12;;;;;;;;;;;16.70;60.40;;;;;;5094382;28;19931;-66
2022/09/26 05:06:38;;;;;;;;;;;16.60;60.40;;;;;;5072586;28;19925;-66
2022/09/26 05:09:04;;;;;;;;;;;16.60;60.40;;;;;;5073167;28;19944;-66
2022/09/26 05:11:31;;;;;;;;;;;16.60;60.40;;;;;;5073052;28;19944;-66
2022/09/26 05:13:57;;;;;;;;;;;16.60;60.40;;;;;;5074093;28;19924;-66
2022/09/26 05:16:23;;;;;;;;;;;16.70;60.40;;;;;;5073973;28;20014;-66
2022/09/26 05:18:49;;;;;;;;;;;16.70;60.40;;;;;;5072943;28;19978;-66
2022/09/26 05:21:15;;;;;;;;;;;16.70;60.50;;;;;;5073943;28;19927;-66
2022/09/26 05:26:29;;;;;;;;;;;16.60;60.40;;;;;;5071346;28;19924;-66
2022/09/26 05:29:00;;;;;;;;;;;16.70;60.40;;;;;;5071601;28;19935;-66
2022/09/26 05:31:27;;;;;;;;;;;16.70;60.40;;;;;;5072570;28;19928;-66
2022/09/26 05:33:56;;;;;;;;;;;16.60;60.40;;;;;;5088261;28;20343;-63
2022/09/26 05:36:21;;;;;;;;;;;16.70;61.00;;;;;;5052256;28;19927;-63
2022/09/26 05:38:47;;;;;;;;;;;16.70;61.00;;;;;;5067740;28;19925;-63
2022/09/26 05:41:13;;;;;;;;;;;16.90;61.20;;;;;;5072084;28;19927;-63
2022/09/26 05:43:38;;;;;;;;;;;16.90;61.30;;;;;;5060959;28;20015;-63
2022/09/26 05:46:06;;;;;;;;;;;17.00;61.40;;;;;;5071360;28;19924;-66
2022/09/26 05:48:32;;;;;;;;;;;17.10;61.20;;;;;;5071892;28;20292;-64
2022/09/26 05:51:02;;;;;;;;;;;17.20;61.20;;;;;;5069604;28;19920;-65
2022/09/26 05:53:28;;;;;;;;;;;17.20;61.10;;;;;;5071353;28;19966;-64
2022/09/26 05:55:54;;;;;;;;;;;17.20;61.00;;;;;;5070979;28;19924;-64
2022/09/26 05:58:19;;;;;;;;;;;17.30;61.10;;;;;;5072413;28;20041;-64
2022/09/26 06:00:46;;;;;;;;;;;17.30;61.10;;;;;;5070752;28;20295;-65
2022/09/26 06:03:12;;;;;;;;;;;17.40;61.00;;;;;;5071610;28;20023;-64
2022/09/26 06:05:38;;;;;;;;;;;17.40;61.10;;;;;;5079689;28;20007;-64
2022/09/26 06:08:03;;;;;;;;;;;17.50;61.00;;;;;;5069658;28;20255;-64
2022/09/26 06:10:29;;;;;;;;;;;17.50;60.90;;;;;;5083504;28;19935;-66
2022/09/26 06:12:58;;;;;;;;;;;17.50;60.90;;;;;;5076734;28;20002;-66
2022/09/26 06:15:23;;;;;;;;;;;17.50;61.10;;;;;;5072547;28;19926;-68
2022/09/26 06:17:56;;;;;;;;;;;17.50;61.10;;;;;;5066781;28;19920;-65
2022/09/26 06:20:24;;;;;;;;;;;17.50;61.20;;;;;;5065875;28;19925;-66
2022/09/26 06:22:49;;;;;;;;;;;17.50;61.10;;;;;;5087201;28;19927;-67
2022/09/26 06:25:15;;;;;;;;;;;17.50;61.20;;;;;;5069455;28;20287;-66
2022/09/26 06:27:41;;;;;;;;;;;17.50;61.40;;;;;;5069923;28;20626;-66
2022/09/26 06:30:07;;;;;;;;;;;17.50;61.40;;;;;;5089025;28;19927;-67
2022/09/26 06:32:33;;;;;;;;;;;17.50;61.50;;;;;;5070591;28;19924;-67
2022/09/26 06:34:59;;;;;;;;;;;17.40;61.40;;;;;;5071151;28;20303;-67
2022/09/26 06:37:24;;;;;;;;;;;17.40;61.50;;;;;;5089953;28;20019;-66
2022/09/26 06:39:50;;;;;;;;;;;17.40;61.60;;;;;;5087052;28;20285;-66
2022/09/26 06:42:15;;;;;;;;;;;17.40;61.50;;;;;;5090096;28;20458;-66
2022/09/26 06:44:41;;;;;;;;;;;17.40;61.50;;;;;;5089999;28;19928;-66
2022/09/26 06:47:06;;;;;;;;;;;17.40;61.50;;;;;;5072243;28;19985;-67
2022/09/26 06:49:33;;;;;;;;;;;17.50;61.50;;;;;;5089959;28;19916;-67
2022/09/26 06:52:00;;;;;;;;;;;17.40;61.40;;;;;;5070993;28;19920;-65
2022/09/26 06:54:25;;;;;;;;;;;17.40;61.60;;;;;;5066753;28;19928;-66
2022/09/26 06:56:51;;;;;;;;;;;17.50;61.30;;;;;;5067701;28;19928;-66
2022/09/26 06:59:17;;;;;;;;;;;17.50;61.20;;;;;;5086486;28;19923;-66
2022/09/26 07:01:44;;;;;;;;;;;17.50;61.20;;;;;;5086873;28;19920;-66
2022/09/26 07:04:10;;;;;;;;;;;17.50;61.20;;;;;;5082667;28;20019;-65
2022/09/26 07:06:37;;;;;;;;;;;17.40;61.10;;;;;;5067521;28;20015;-66
2022/09/26 07:09:02;;;;;;;;;;;17.40;61.10;;;;;;5073971;28;19920;-66
2022/09/26 07:11:28;;;;;;;;;;;17.40;61.10;;;;;;5065571;28;19935;-66
2022/09/26 07:13:53;;;;;;;;;;;17.30;61.10;;;;;;5056303;28;19924;-66
2022/09/26 07:16:19;;;;;;;;;;;17.30;61.10;;;;;;5064371;28;19974;-66
2022/09/26 07:18:45;;;;;;;;;;;17.30;61.10;;;;;;5082592;28;20281;-66
2022/09/26 07:21:10;;;;;;;;;;;17.30;61.20;;;;;;5057582;28;19920;-65
2022/09/26 07:23:36;;;;;;;;;;;17.30;61.10;;;;;;5075387;28;19927;-66
2022/09/26 07:26:01;;;;;;;;;;;17.30;61.10;;;;;;5075058;28;19932;-66
2022/09/26 07:28:28;;;;;;;;;;;17.20;61.10;;;;;;5053398;28;19924;-66
2022/09/26 07:30:56;;;;;;;;;;;17.20;61.10;;;;;;5073787;28;20390;-66
2022/09/26 07:33:21;;;;;;;;;;;17.20;61.10;;;;;;5075410;28;19935;-66
2022/09/26 07:35:47;;;;;;;;;;;17.20;61.20;;;;;;5062696;28;20319;-65
2022/09/26 07:38:13;;;;;;;;;;;17.10;61.10;;;;;;5057031;28;19956;-66
2022/09/26 07:40:39;;;;;;;;;;;17.10;61.20;;;;;;5066116;28;20304;-66
2022/09/26 07:43:05;;;;;;;;;;;17.10;61.10;;;;;;5063915;28;19920;-66
2022/09/26 07:51:01;;;;;;;;;;;17.10;61.10;;;;;;5067491;28;19920;-66
2022/09/26 07:53:27;;;;;;;;;;;17.00;61.10;;;;;;5072004;28;20402;-66
2022/09/26 07:56:24;;;;;;;;;;;17.00;61.00;;;;;;5060858;28;19921;-66
2022/09/26 07:58:40;;;;;;;;;;;17.00;61.00;;;;;;5064244;28;20441;-66
2022/09/26 08:01:10;;;;;;;;;;;17.10;61.10;;;;;;5066471;28;19920;-66
2022/09/26 08:03:44;;;;;;;;;;;17.00;61.00;;;;;;5068963;28;19920;-66
2022/09/26 08:06:11;;;;;;;;;;;17.00;61.00;;;;;;5083625;28;19998;-66
2022/09/26 08:08:37;;;;;;;;;;;17.00;61.00;;;;;;5082580;28;20055;-66
2022/09/26 08:11:04;;;;;;;;;;;17.00;60.90;;;;;;5064713;28;20031;-66
2022/09/26 08:13:31;;;;;;;;;;;17.00;60.90;;;;;;5083140;28;20414;-66
2022/09/26 08:16:01;;;;;;;;;;;17.00;60.90;;;;;;5077680;28;20031;-65
2022/09/26 08:18:26;;;;;;;;;;;17.00;60.90;;;;;;5076151;28;20019;-66
2022/09/26 08:20:52;;;;;;;;;;;17.00;60.90;;;;;;5071130;28;19999;-66
2022/09/26 08:23:17;;;;;;;;;;;17.00;60.90;;;;;;5067306;28;20006;-66
2022/09/26 08:25:43;;;;;;;;;;;17.00;60.90;;;;;;5065068;28;19924;-66
2022/09/26 08:28:11;;;;;;;;;;;17.00;60.80;;;;;;5082268;28;19972;-66
2022/09/26 08:30:38;;;;;;;;;;;17.00;60.90;;;;;;5080425;28;20399;-66
2022/09/26 08:33:03;;;;;;;;;;;17.00;60.80;;;;;;5081998;28;19973;-65
2022/09/26 08:35:35;;;;;;;;;;;17.10;60.90;;;;;;5081041;28;20366;-66
2022/09/26 08:38:02;;;;;;;;;;;17.00;60.80;;;;;;5079463;28;20304;-66
2022/09/26 08:40:32;;;;;;;;;;;17.00;60.80;;;;;;5086232;28;19924;-66
2022/09/26 08:43:05;;;;;;;;;;;17.00;60.80;;;;;;5062104;28;19955;-66
2022/09/26 08:48:25;;;;;;;;;;;17.00;60.80;;;;;;5055946;28;19925;-65
2022/09/26 08:51:02;;;;;;;;;;;17.00;60.70;;;;;;5059629;28;20009;-65
2022/09/26 08:53:31;;;;;;;;;;;17.00;60.70;;;;;;5062606;28;20712;-65
2022/09/26 08:56:00;;;;;;;;;;;17.00;61.00;;;;;;5074434;28;19921;-64
2022/09/26 09:01:17;;;;;;;;;;;18.10;59.70;;;;;;5057147;28;19916;-65
2022/09/26 09:03:48;;;;;;;;;;;19.00;57.90;;;;;;5057618;28;19924;-66
2022/09/26 09:06:14;;;;;;;;;;;19.60;56.50;;;;;;5074806;28;19937;-66
2022/09/26 09:08:42;;;;;;;;;;;20.20;55.20;;;;;;5058481;28;19927;-66
2022/09/26 09:11:16;;;;;;;;;;;20.70;54.10;;;;;;5057976;28;20097;-66
2022/09/26 09:14:02;;;;;;;;;;;21.10;53.30;;;;;;5059084;28;19921;-66
2022/09/26 09:16:34;;;;;;;;;;;21.50;52.50;;;;;;5060862;28;19921;-66
2022/09/26 09:19:19;;;;;;;;;;;21.90;51.80;;;;;;5060460;28;19921;-66
2022/09/26 09:30:01;;;;;;;;;;;22.80;50.00;;;;;;5070406;28;19924;-66
2022/09/26 09:32:31;;;;;;;;;;;22.90;49.70;;;;;;5062705;28;20011;-66
2022/09/26 09:34:56;;;;;;;;;;;22.90;49.60;;;;;;5064344;28;19928;-66
2022/09/26 09:37:26;;;;;;;;;;;22.80;49.80;;;;;;5049849;28;19975;-66
2022/09/26 09:39:53;;;;;;;;;;;22.70;50.10;;;;;;5063909;28;19920;-66
2022/09/26 09:42:25;;;;;;;;;;;22.60;50.10;;;;;;5062704;28;19921;-66
2022/09/26 09:47:33;;;;;;;;;;;22.20;50.40;;;;;;5106757;27;1996259;-66
2022/09/26 09:49:59;;;;;;;;;;;22.00;50.60;;;;;;5154970;27;20289;-66
2022/09/26 09:55:31;;;;;;;;;;;21.50;51.60;;;;;;5060931;28;20395;-65
2022/09/26 09:58:06;;;;;;;;;;;21.20;51.90;;;;;;5072979;28;20008;-66
2022/09/26 10:00:34;;;;;;;;;;;20.90;53.20;;;;;;5087206;28;20424;-66
2022/09/26 10:05:44;;;;;;;;;;;20.60;53.00;;;;;;5078257;28;19938;-66
2022/09/26 10:08:12;;;;;;;;;;;20.40;53.30;;;;;;5077188;28;20388;-66
2022/09/26 10:13:21;;;;;;;;;;;20.20;54.10;;;;;;5076354;28;19921;-65
2022/09/26 10:15:56;;;;;;;;;;;20.00;54.60;;;;;;5062109;28;20384;-66
2022/09/26 10:18:22;;;;;;;;;;;19.80;55.00;;;;;;5077580;28;19935;-65
2022/09/26 10:20:52;;;;;;;;;;;19.70;55.30;;;;;;5071249;28;19920;-66
2022/09/26 10:23:21;;;;;;;;;;;19.60;55.60;;;;;;5061075;28;19924;-65
2022/09/26 10:25:47;;;;;;;;;;;19.50;55.90;;;;;;5061479;28;19959;-66
2022/09/26 10:28:34;;;;;;;;;;;19.40;56.10;;;;;;5063130;28;19921;-65
2022/09/26 10:31:02;;;;;;;;;;;19.40;56.40;;;;;;5059977;28;20011;-66
2022/09/26 10:33:29;;;;;;;;;;;19.30;56.60;;;;;;5060813;28;20480;-65
2022/09/26 10:36:03;;;;;;;;;;;19.20;56.70;;;;;;5073750;28;19929;-65
2022/09/26 10:38:29;;;;;;;;;;;19.20;56.90;;;;;;5060250;28;20309;-65
2022/09/26 10:40:58;;;;;;;;;;;19.10;57.10;;;;;;5056524;28;20174;-66
2022/09/26 10:43:33;;;;;;;;;;;19.10;57.30;;;;;;5061154;28;19928;-66
2022/09/26 10:46:15;;;;;;;;;;;19.10;57.50;;;;;;5060941;28;19925;-64
2022/09/26 10:48:46;;;;;;;;;;;19.00;57.80;;;;;;5062462;28;19931;-65
2022/09/26 10:51:24;;;;;;;;;;;19.00;58.20;;;;;;5052789;28;19925;-66
2022/09/26 10:53:51;;;;;;;;;;;19.00;58.00;;;;;;5059503;28;20193;-66
2022/09/26 10:56:24;;;;;;;;;;;18.90;58.00;;;;;;5062716;28;20030;-66
2022/09/26 10:58:51;;;;;;;;;;;18.90;58.10;;;;;;5062259;28;19921;-66
2022/09/26 11:01:19;;;;;;;;;;;18.80;58.20;;;;;;5063739;28;20288;-66
2022/09/26 11:03:45;;;;;;;;;;;18.80;58.30;;;;;;5070127;28;19929;-66
2022/09/26 11:06:30;;;;;;;;;;;18.70;58.40;;;;;;5062385;28;20403;-66
2022/09/26 11:09:01;;;;;;;;;;;18.70;58.50;;;;;;5061888;28;20441;-66
2022/09/26 11:11:28;;;;;;;;;;;18.60;58.50;;;;;;5061618;28;20292;-66
2022/09/26 11:16:38;;;;;;;;;;;18.50;58.60;;;;;;5068130;28;19916;-65
2022/09/26 11:19:07;;;;;;;;;;;18.40;58.70;;;;;;5062172;28;20011;-66
2022/09/26 11:21:43;;;;;;;;;;;18.40;58.80;;;;;;5058970;28;20411;-66
2022/09/26 11:24:28;;;;;;;;;;;18.40;58.90;;;;;;5051527;28;19929;-66
2022/09/26 11:30:10;;;;;;;;;;;18.30;59.10;;;;;;5059995;28;19924;-66
2022/09/26 11:32:41;;;;;;;;;;;18.30;59.20;;;;;;5065061;28;20036;-66
2022/09/26 11:35:12;;;;;;;;;;;18.30;59.30;;;;;;5045429;28;20361;-66
2022/09/26 11:37:44;;;;;;;;;;;18.20;59.40;;;;;;5050797;28;19921;-65
2022/09/26 11:46:05;;;;;;;;;;;18.20;59.80;;;;;;5061904;28;19921;-65
2022/09/26 11:48:51;;;;;;;;;;;18.10;59.80;;;;;;5059415;28;19925;-65
2022/09/26 11:51:36;;;;;;;;;;;18.10;59.80;;;;;;5071380;28;19928;-66
2022/09/26 11:56:56;;;;;;;;;;;18.10;59.90;;;;;;5076329;27;19917;-66
2022/09/26 12:02:39;;;;;;;;;;;18.10;60.00;;;;;;5059879;27;19953;-66
2022/09/26 12:08:10;;;;;;;;;;;18.10;60.20;;;;;;5094772;27;1867329;-66
2022/09/26 12:10:42;;;;;;;;;;;18.00;60.10;;;;;;5140665;27;19977;-66
2022/09/26 12:15:54;;;;;;;;;;;18.00;60.30;;;;;;5087550;27;19931;-65
2022/09/26 12:18:28;;;;;;;;;;;18.00;60.30;;;;;;5084928;28;19974;-65
2022/09/26 12:29:31;;;;;;;;;;;17.90;60.40;;;;;;5074895;27;19917;-65
2022/09/26 12:40:03;;;;;;;;;;;17.90;60.70;;;;;;5068052;27;19917;-65
2022/09/26 12:42:49;;;;;;;;;;;17.90;60.70;;;;;;5043537;28;19921;-66
2022/09/26 12:45:36;;;;;;;;;;;17.80;60.80;;;;;;5046362;28;20257;-65
2022/09/26 12:50:50;;;;;;;;;;;17.80;61.10;;;;;;5061943;28;20171;-66
2022/09/26 12:53:22;;;;;;;;;;;17.90;61.10;;;;;;5055329;28;19928;-66
2022/09/26 12:56:06;;;;;;;;;;;17.80;61.30;;;;;;5050783;28;20014;-66
2022/09/26 12:58:54;;;;;;;;;;;17.90;61.30;;;;;;5052216;28;20240;-65
2022/09/26 13:01:42;;;;;;;;;;;17.80;61.50;;;;;;5052935;28;20388;-65
2022/09/26 13:04:27;;;;;;;;;;;17.90;61.50;;;;;;5050591;28;20297;-65
2022/09/26 13:07:13;;;;;;;;;;;17.80;62.10;;;;;;5048762;28;19925;-64
2022/09/26 13:18:06;;;;;;;;;;;18.20;62.20;;;;;;5092366;27;1873115;-64
2022/09/26 13:20:37;;;;;;;;;;;18.20;62.00;;;;;;5126499;27;19926;-64
2022/09/26 13:23:26;;;;;;;;;;;18.30;62.00;;;;;;5124539;27;19919;-64
2022/09/26 13:25:55;;;;;;;;;;;18.30;62.00;;;;;;5125120;27;20011;-64
2022/09/26 13:28:27;;;;;;;;;;;18.30;62.00;;;;;;5119004;27;20013;-65
2022/09/26 13:30:57;;;;;;;;;;;18.40;62.20;;;;;;5131043;27;19926;-65
2022/09/26 13:36:03;;;;;;;;;;;18.50;62.30;;;;;;5070792;28;19916;-65
2022/09/26 13:38:51;;;;;;;;;;;18.50;62.30;;;;;;5057711;28;20567;-65
2022/09/26 13:44:04;;;;;;;;;;;18.60;62.30;;;;;;5092784;27;19925;-65
2022/09/26 13:46:35;;;;;;;;;;;18.60;62.30;;;;;;5063379;28;20521;-66
2022/09/26 13:49:12;;;;;;;;;;;18.60;62.40;;;;;;5060369;28;19921;-66
2022/09/26 13:51:44;;;;;;;;;;;18.60;62.40;;;;;;5100009;28;20435;-66
2022/09/26 13:54:19;;;;;;;;;;;18.70;62.60;;;;;;5088438;28;19932;-65
2022/09/26 13:56:48;;;;;;;;;;;18.70;62.60;;;;;;5082551;28;19921;-66
2022/09/26 14:02:14;;;;;;;;;;;18.70;62.50;;;;;;5085721;28;19920;-68
2022/09/26 14:04:40;;;;;;;;;;;18.70;62.40;;;;;;5085509;28;20341;-68
2022/09/26 14:09:54;;;;;;;;;;;18.70;62.50;;;;;;5076258;28;19917;-66
2022/09/26 14:12:29;;;;;;;;;;;18.70;62.60;;;;;;5065570;28;19939;-65
2022/09/26 14:15:15;;;;;;;;;;;18.80;62.80;;;;;;5072302;28;19927;-67
2022/09/26 14:20:26;;;;;;;;;;;18.80;62.80;;;;;;5089491;27;1856191;-70
2022/09/26 14:22:54;;;;;;;;;;;18.90;62.80;;;;;;5121144;27;19923;-70
2022/09/26 14:25:39;;;;;;;;;;;18.90;62.90;;;;;;5119453;27;19926;-69
2022/09/26 14:28:11;;;;;;;;;;;18.80;63.50;;;;;;5104416;27;19919;-69
2022/09/26 14:30:36;;;;;;;;;;;18.70;62.80;;;;;;5123163;27;19962;-70
2022/09/26 14:33:05;;;;;;;;;;;18.70;62.80;;;;;;5120541;27;19954;-70
2022/09/26 14:35:33;;;;;;;;;;;18.60;62.90;;;;;;5121146;27;19980;-70
2022/09/26 14:38:01;;;;;;;;;;;18.60;63.00;;;;;;5123721;27;19920;-70
2022/09/26 14:40:28;;;;;;;;;;;18.50;63.00;;;;;;5120588;27;19949;-70
2022/09/26 14:42:59;;;;;;;;;;;18.50;63.80;;;;;;5114643;28;19923;-71
2022/09/26 14:45:25;;;;;;;;;;;18.50;63.10;;;;;;5109515;28;20078;-71
2022/09/26 14:50:39;;;;;;;;;;;18.40;63.10;;;;;;5086127;28;19913;-70
2022/09/26 14:53:11;;;;;;;;;;;18.30;63.00;;;;;;5086544;28;19920;-70
2022/09/26 14:55:50;;;;;;;;;;;18.30;63.10;;;;;;5088455;28;19970;-70
2022/09/26 14:58:28;;;;;;;;;;;18.30;63.20;;;;;;5087915;28;20379;-70
2022/09/26 15:00:53;;;;;;;;;;;18.30;63.10;;;;;;5087854;28;19990;-70
2022/09/26 15:03:20;;;;;;;;;;;18.30;63.10;;;;;;5088726;28;20384;-70
2022/09/26 15:05:46;;;;;;;;;;;18.20;63.00;;;;;;5089529;28;19970;-70
2022/09/26 15:08:19;;;;;;;;;;;18.20;63.10;;;;;;5088522;28;20011;-69
2022/09/26 15:10:46;;;;;;;;;;;18.20;63.00;;;;;;5088539;28;19927;-69
2022/09/26 15:13:21;;;;;;;;;;;18.20;63.10;;;;;;5089465;28;19926;-70
2022/09/26 15:18:30;;;;;;;;;;;18.20;63.00;;;;;;5089920;28;19913;-70
2022/09/26 15:20:58;;;;;;;;;;;18.10;63.00;;;;;;5088863;28;20346;-70
2022/09/26 15:23:26;;;;;;;;;;;18.10;63.00;;;;;;5087880;28;19921;-70
2022/09/26 15:25:55;;;;;;;;;;;18.10;63.00;;;;;;5088765;28;19927;-70
2022/09/26 15:28:23;;;;;;;;;;;18.10;63.00;;;;;;5089735;28;19994;-70
2022/09/26 15:31:10;;;;;;;;;;;18.10;63.10;;;;;;5088718;28;19920;-70
2022/09/26 15:33:37;;;;;;;;;;;18.10;63.10;;;;;;5089571;28;20011;-70
2022/09/26 15:36:05;;;;;;;;;;;18.10;63.10;;;;;;5087372;28;19924;-69
2022/09/26 15:38:30;;;;;;;;;;;18.10;63.00;;;;;;5085386;28;19920;-69
2022/09/26 15:40:57;;;;;;;;;;;18.10;63.10;;;;;;5086841;28;19946;-69
2022/09/26 15:43:23;;;;;;;;;;;18.10;63.00;;;;;;5084417;28;19920;-70
2022/09/26 15:45:56;;;;;;;;;;;18.10;63.10;;;;;;5087673;28;20391;-70
2022/09/26 15:48:25;;;;;;;;;;;18.00;63.80;;;;;;5087625;28;19928;-69
2022/09/26 15:50:52;;;;;;;;;;;18.00;63.00;;;;;;5089072;28;20284;-69
2022/09/26 15:53:38;;;;;;;;;;;18.00;63.00;;;;;;5088066;28;20007;-69
2022/09/26 15:56:12;;;;;;;;;;;18.00;63.00;;;;;;5087768;28;19920;-69
2022/09/26 16:01:21;;;;;;;;;;;18.00;63.10;;;;;;5110081;27;19919;-69
2022/09/26 16:04:03;;;;;;;;;;;18.00;63.10;;;;;;5091916;28;19924;-69
2022/09/26 16:11:53;;;;;;;;;;;18.10;63.10;;;;;;5089581;28;20279;-70
2022/09/26 16:14:40;;;;;;;;;;;18.00;63.00;;;;;;5089795;28;19942;-69
2022/09/26 16:17:25;;;;;;;;;;;18.00;63.00;;;;;;5088725;28;20005;-69
2022/09/26 16:19:55;;;;;;;;;;;18.00;63.10;;;;;;5087758;28;19970;-69
2022/09/26 16:33:23;;;;;;;;;;;17.90;63.00;;;;;;5089872;28;20394;-69
2022/09/26 16:35:50;;;;;;;;;;;17.90;63.80;;;;;;5088648;28;19964;-69
2022/09/26 16:38:22;;;;;;;;;;;17.90;63.00;;;;;;5088254;28;20463;-70
2022/09/26 16:40:50;;;;;;;;;;;17.90;63.10;;;;;;5088441;28;19924;-69
2022/09/26 16:43:20;;;;;;;;;;;17.90;63.00;;;;;;5088804;28;19971;-70
2022/09/26 16:45:48;;;;;;;;;;;17.90;63.10;;;;;;5088324;28;19973;-69
2022/09/26 16:48:34;;;;;;;;;;;17.90;63.10;;;;;;5088397;28;20434;-70
2022/09/26 16:56:40;;;;;;;;;;;17.90;63.10;;;;;;5110337;27;19912;-69
2022/09/26 16:59:15;;;;;;;;;;;17.80;63.10;;;;;;5108848;28;19927;-69
2022/09/26 17:01:56;;;;;;;;;;;17.80;63.10;;;;;;5110207;28;19924;-70